createdAt,value
2023-07-18T00:00:26.260Z,14.29
2023-07-18T00:01:26.417Z,14.20
2023-07-18T00:02:26.249Z,14.23
2023-07-18T00:03:26.283Z,14.27
2023-07-18T00:04:26.214Z,14.21
2023-07-18T00:05:49.236Z,14.16
2023-07-18T00:06:25.252Z,14.12
2023-07-18T00:07:25.253Z,14.16
2023-07-18T00:08:27.723Z,14.17
2023-07-18T00:09:25.735Z,14.20
2023-07-18T00:10:25.215Z,14.17
2023-07-18T00:11:25.245Z,14.17
2023-07-18T00:12:25.733Z,14.19
2023-07-18T00:13:25.718Z,14.17
2023-07-18T00:14:25.151Z,14.20
2023-07-18T00:15:25.253Z,14.19
2023-07-18T00:16:25.227Z,14.24
2023-07-18T00:17:25.163Z,14.27
2023-07-18T00:18:25.126Z,14.20
2023-07-18T00:19:25.098Z,14.27
2023-07-18T00:20:25.103Z,14.26
2023-07-18T00:21:31.713Z,14.27
2023-07-18T00:22:25.067Z,14.24
2023-07-18T00:23:27.140Z,14.24
2023-07-18T00:24:25.724Z,14.16
2023-07-18T00:25:25.079Z,14.13
2023-07-18T00:26:25.721Z,14.17
2023-07-18T00:27:29.803Z,14.17
2023-07-18T00:28:25.725Z,14.16
2023-07-18T00:29:25.004Z,14.19
2023-07-18T00:30:24.961Z,14.16
2023-07-18T00:31:25.033Z,14.16
2023-07-18T00:32:27.730Z,14.16
2023-07-18T00:33:24.938Z,14.13
2023-07-18T00:34:24.940Z,14.21
2023-07-18T00:35:25.729Z,14.20
2023-07-18T00:36:24.921Z,14.20
2023-07-18T00:37:28.779Z,14.24
2023-07-18T00:38:27.728Z,14.27
2023-07-18T00:39:25.758Z,14.21
2023-07-18T00:40:31.724Z,14.29
2023-07-18T00:41:25.761Z,14.23
2023-07-18T00:42:24.853Z,14.27
2023-07-18T00:43:31.725Z,14.31
2023-07-18T00:44:24.816Z,14.27
2023-07-18T00:45:24.790Z,14.29
2023-07-18T00:46:24.805Z,14.27
2023-07-18T00:47:25.763Z,14.29
2023-07-18T00:48:27.727Z,14.29
2023-07-18T00:49:25.723Z,14.30
2023-07-18T00:50:25.735Z,14.27
2023-07-18T00:51:24.768Z,14.27
2023-07-18T00:52:24.750Z,14.24
2023-07-18T00:53:31.225Z,14.30
2023-07-18T00:54:31.258Z,14.39
2023-07-18T00:55:24.762Z,14.29
2023-07-18T00:56:24.699Z,14.39
2023-07-18T00:57:31.220Z,14.36
2023-07-18T00:58:24.667Z,14.34
2023-07-18T00:59:27.228Z,14.38
2023-07-18T01:00:24.653Z,14.35
2023-07-18T01:01:24.813Z,14.38
2023-07-18T01:02:24.743Z,14.48
2023-07-18T01:03:27.303Z,14.48
2023-07-18T01:04:24.677Z,14.44
2023-07-18T01:05:27.229Z,14.48
2023-07-18T01:06:24.758Z,14.49
2023-07-18T01:07:24.625Z,14.52
2023-07-18T01:08:25.611Z,14.46
2023-07-18T01:09:24.533Z,14.49
2023-07-18T01:10:27.242Z,14.54
2023-07-18T01:11:24.546Z,14.46
2023-07-18T01:12:27.249Z,14.52
2023-07-18T01:13:25.223Z,14.42
2023-07-18T01:14:24.764Z,14.42
2023-07-18T01:15:24.510Z,14.39
2023-07-18T01:16:25.277Z,14.36
2023-07-18T01:17:39.252Z,14.38
2023-07-18T01:18:24.462Z,14.41
2023-07-18T01:19:24.446Z,14.31
2023-07-18T01:20:25.223Z,14.39
2023-07-18T01:21:24.407Z,14.38
2023-07-18T01:22:24.389Z,14.34
2023-07-18T01:23:27.229Z,14.34
2023-07-18T01:24:24.407Z,14.34
2023-07-18T01:25:24.358Z,14.23
2023-07-18T01:26:24.367Z,14.21
2023-07-18T01:27:24.342Z,14.24
2023-07-18T01:28:24.335Z,14.24
2023-07-18T01:29:27.230Z,14.21
2023-07-18T01:30:24.340Z,14.29
2023-07-18T01:31:24.355Z,14.31
2023-07-18T01:32:27.249Z,14.29
2023-07-18T01:33:27.231Z,14.24
2023-07-18T01:34:24.289Z,14.31
2023-07-18T01:35:31.238Z,14.26
2023-07-18T01:36:26.318Z,14.29
2023-07-18T01:37:26.278Z,14.26
2023-07-18T01:38:24.729Z,14.19
2023-07-18T01:39:24.243Z,14.24
2023-07-18T01:40:26.782Z,14.30
2023-07-18T01:41:24.219Z,14.24
2023-07-18T01:42:24.190Z,14.29
2023-07-18T01:43:26.727Z,14.31
2023-07-18T01:44:24.265Z,14.27
2023-07-18T01:45:24.175Z,14.24
2023-07-18T01:46:24.164Z,14.29
2023-07-18T01:47:27.775Z,14.26
2023-07-18T01:48:24.266Z,14.27
2023-07-18T01:49:26.754Z,14.27
2023-07-18T01:50:24.256Z,14.21
2023-07-18T01:51:24.107Z,14.30
2023-07-18T01:52:24.054Z,14.29
2023-07-18T01:53:24.273Z,14.24
2023-07-18T01:54:24.068Z,14.27
2023-07-18T01:55:24.085Z,14.27
2023-07-18T01:56:30.732Z,14.30
2023-07-18T01:57:24.002Z,14.27
2023-07-18T01:58:24.010Z,14.27
2023-07-18T01:59:23.997Z,14.27
2023-07-18T02:00:24.731Z,14.23
2023-07-18T02:01:24.030Z,14.20
2023-07-18T02:02:24.065Z,14.29
2023-07-18T02:03:24.008Z,14.21
2023-07-18T02:04:23.954Z,14.20
2023-07-18T02:05:23.926Z,14.16
2023-07-18T02:06:25.745Z,14.19
2023-07-18T02:07:23.918Z,14.13
2023-07-18T02:08:23.901Z,14.13
2023-07-18T02:09:23.876Z,14.12
2023-07-18T02:10:24.736Z,14.11
2023-07-18T02:11:24.737Z,14.08
2023-07-18T02:12:23.850Z,14.04
2023-07-18T02:13:23.836Z,14.12
2023-07-18T02:14:23.870Z,14.12
2023-07-18T02:15:24.739Z,14.09
2023-07-18T02:16:26.768Z,14.11
2023-07-18T02:17:26.767Z,14.16
2023-07-18T02:18:24.731Z,14.11
2023-07-18T02:19:25.813Z,14.06
2023-07-18T02:20:23.758Z,14.06
2023-07-18T02:21:25.828Z,14.08
2023-07-18T02:22:24.234Z,14.09
2023-07-18T02:23:24.245Z,14.08
2023-07-18T02:24:23.706Z,14.09
2023-07-18T02:25:23.719Z,14.09
2023-07-18T02:26:23.781Z,14.09
2023-07-18T02:27:26.237Z,14.09
2023-07-18T02:28:23.670Z,14.09
2023-07-18T02:29:24.254Z,14.04
2023-07-18T02:30:23.682Z,14.02
2023-07-18T02:31:24.305Z,13.96
2023-07-18T02:32:23.777Z,13.94
2023-07-18T02:33:23.771Z,13.96
2023-07-18T02:34:23.611Z,13.96
2023-07-18T02:35:23.610Z,13.91
2023-07-18T02:36:23.761Z,13.96
2023-07-18T02:37:24.245Z,13.99
2023-07-18T02:38:23.550Z,13.81
2023-07-18T02:39:23.549Z,13.91
2023-07-18T02:40:23.774Z,13.93
2023-07-18T02:41:23.525Z,13.96
2023-07-18T02:42:30.235Z,13.91
2023-07-18T02:43:23.528Z,13.86
2023-07-18T02:44:23.516Z,13.94
2023-07-18T02:45:44.806Z,13.93
2023-07-18T02:46:26.288Z,13.96
2023-07-18T02:47:23.490Z,13.91
2023-07-18T02:48:30.247Z,13.96
2023-07-18T02:49:24.243Z,14.01
2023-07-18T02:50:23.451Z,14.02
2023-07-18T02:51:23.472Z,13.94
2023-07-18T02:52:23.399Z,13.96
2023-07-18T02:53:23.415Z,14.02
2023-07-18T02:54:23.374Z,13.99
2023-07-18T02:55:23.366Z,13.98
2023-07-18T02:56:23.379Z,13.99
2023-07-18T02:57:24.292Z,14.01
2023-07-18T02:58:26.248Z,13.94
2023-07-18T02:59:24.233Z,13.98
2023-07-18T03:00:23.350Z,13.94
2023-07-18T03:01:24.319Z,13.90
2023-07-18T03:02:24.274Z,13.83
2023-07-18T03:03:24.479Z,13.83
2023-07-18T03:04:24.242Z,13.83
2023-07-18T03:05:23.786Z,13.79
2023-07-18T03:06:23.254Z,13.81
2023-07-18T03:07:23.230Z,13.75
2023-07-18T03:08:23.225Z,13.80
2023-07-18T03:09:23.205Z,13.72
2023-07-18T03:10:23.201Z,13.73
2023-07-18T03:11:23.206Z,13.76
2023-07-18T03:12:25.777Z,13.73
2023-07-18T03:13:23.162Z,13.76
2023-07-18T03:14:25.761Z,13.73
2023-07-18T03:15:23.138Z,13.71
2023-07-18T03:16:23.152Z,13.76
2023-07-18T03:17:23.194Z,13.61
2023-07-18T03:18:23.141Z,13.55
2023-07-18T03:19:23.095Z,13.59
2023-07-18T03:20:23.088Z,13.65
2023-07-18T03:21:23.080Z,13.61
2023-07-18T03:22:23.062Z,13.59
2023-07-18T03:23:23.077Z,13.59
2023-07-18T03:24:23.053Z,13.54
2023-07-18T03:25:23.030Z,13.55
2023-07-18T03:26:23.742Z,13.59
2023-07-18T03:27:23.018Z,13.57
2023-07-18T03:28:23.274Z,13.57
2023-07-18T03:29:22.973Z,13.59
2023-07-18T03:30:23.001Z,13.54
2023-07-18T03:31:22.967Z,13.55
2023-07-18T03:32:22.974Z,13.55
2023-07-18T03:33:23.000Z,13.54
2023-07-18T03:34:22.949Z,13.59
2023-07-18T03:35:23.753Z,13.54
2023-07-18T03:36:25.759Z,13.50
2023-07-18T03:37:22.898Z,13.57
2023-07-18T03:38:25.776Z,13.61
2023-07-18T03:39:22.903Z,13.66
2023-07-18T03:40:23.743Z,13.68
2023-07-18T03:41:22.845Z,13.59
2023-07-18T03:42:22.838Z,13.57
2023-07-18T03:43:22.859Z,13.57
2023-07-18T03:44:23.278Z,13.63
2023-07-18T03:45:23.752Z,13.69
2023-07-18T03:46:23.032Z,13.62
2023-07-18T03:47:31.251Z,13.55
2023-07-18T03:48:22.811Z,13.65
2023-07-18T03:49:22.782Z,13.59
2023-07-18T03:50:22.769Z,13.59
2023-07-18T03:51:26.046Z,13.55
2023-07-18T03:52:23.246Z,13.62
2023-07-18T03:53:22.744Z,13.61
2023-07-18T03:54:22.712Z,13.57
2023-07-18T03:55:25.391Z,13.65
2023-07-18T03:56:22.793Z,13.54
2023-07-18T03:57:22.696Z,13.54
2023-07-18T03:58:23.244Z,13.59
2023-07-18T03:59:22.655Z,13.59
2023-07-18T04:00:23.694Z,13.59
2023-07-18T04:01:22.743Z,13.51
2023-07-18T04:02:22.656Z,13.59
2023-07-18T04:03:22.627Z,13.50
2023-07-18T04:04:23.625Z,13.47
2023-07-18T04:05:22.624Z,13.50
2023-07-18T04:06:22.588Z,13.47
2023-07-18T04:07:22.582Z,13.50
2023-07-18T04:08:22.559Z,13.51
2023-07-18T04:09:23.240Z,13.53
2023-07-18T04:10:23.264Z,13.57
2023-07-18T04:11:23.000Z,13.59
2023-07-18T04:12:22.976Z,13.54
2023-07-18T04:13:23.243Z,13.55
2023-07-18T04:14:24.270Z,13.57
2023-07-18T04:15:22.472Z,13.54
2023-07-18T04:16:25.655Z,13.54
2023-07-18T04:17:23.269Z,13.51
2023-07-18T04:18:22.474Z,13.53
2023-07-18T04:19:23.255Z,13.54
2023-07-18T04:20:22.422Z,13.55
2023-07-18T04:21:37.263Z,13.62
2023-07-18T04:22:22.404Z,13.59
2023-07-18T04:23:23.251Z,13.62
2023-07-18T04:24:22.793Z,13.62
2023-07-18T04:25:25.256Z,13.57
2023-07-18T04:26:22.360Z,13.63
2023-07-18T04:27:22.345Z,13.71
2023-07-18T04:28:22.355Z,13.69
2023-07-18T04:29:22.790Z,13.71
2023-07-18T04:30:22.335Z,13.72
2023-07-18T04:31:23.577Z,13.81
2023-07-18T04:32:22.302Z,13.81
2023-07-18T04:33:22.272Z,13.87
2023-07-18T04:34:22.273Z,13.84
2023-07-18T04:35:22.266Z,13.88
2023-07-18T04:36:22.275Z,13.91
2023-07-18T04:37:22.251Z,13.93
2023-07-18T04:38:36.767Z,13.91
2023-07-18T04:39:22.298Z,13.93
2023-07-18T04:40:36.746Z,14.04
2023-07-18T04:41:22.491Z,14.02
2023-07-18T04:42:22.193Z,14.04
2023-07-18T04:43:22.162Z,14.09
2023-07-18T04:44:24.790Z,14.11
2023-07-18T04:45:23.153Z,14.11
2023-07-18T04:46:22.201Z,14.20
2023-07-18T04:47:23.225Z,14.19
2023-07-18T04:48:22.188Z,14.20
2023-07-18T04:49:22.108Z,14.12
2023-07-18T04:50:22.101Z,14.20
2023-07-18T04:51:22.070Z,14.29
2023-07-18T04:52:22.750Z,14.26
2023-07-18T04:53:23.100Z,14.29
2023-07-18T04:54:22.039Z,14.30
2023-07-18T04:55:22.760Z,14.29
2023-07-18T04:56:22.031Z,14.29
2023-07-18T04:57:24.768Z,14.41
2023-07-18T04:58:22.005Z,14.38
2023-07-18T04:59:24.762Z,14.46
2023-07-18T05:00:21.972Z,14.44
2023-07-18T05:01:22.255Z,14.48
2023-07-18T05:02:21.962Z,14.46
2023-07-18T05:03:24.809Z,14.48
2023-07-18T05:04:22.012Z,14.48
2023-07-18T05:05:28.760Z,14.48
2023-07-18T05:06:24.766Z,14.53
2023-07-18T05:07:22.768Z,14.61
2023-07-18T05:08:22.755Z,14.69
2023-07-18T05:09:21.905Z,14.66
2023-07-18T05:10:22.762Z,14.69
2023-07-18T05:11:23.053Z,14.64
2023-07-18T05:12:21.846Z,14.69
2023-07-18T05:13:21.820Z,14.75
2023-07-18T05:14:21.828Z,14.79
2023-07-18T05:15:21.800Z,14.79
2023-07-18T05:16:22.805Z,14.87
2023-07-18T05:17:21.855Z,14.78
2023-07-18T05:18:21.770Z,14.80
2023-07-18T05:19:21.768Z,14.83
2023-07-18T05:20:21.757Z,14.85
2023-07-18T05:21:21.995Z,14.91
2023-07-18T05:22:21.747Z,14.82
2023-07-18T05:23:21.778Z,14.93
2023-07-18T05:24:21.703Z,14.95
2023-07-18T05:25:22.287Z,14.93
2023-07-18T05:26:24.259Z,14.95
2023-07-18T05:27:21.689Z,14.90
2023-07-18T05:28:22.258Z,14.97
2023-07-18T05:29:21.670Z,15.03
2023-07-18T05:30:21.678Z,14.95
2023-07-18T05:31:21.973Z,15.07
2023-07-18T05:32:21.742Z,15.05
2023-07-18T05:33:22.636Z,15.00
2023-07-18T05:34:21.595Z,15.03
2023-07-18T05:35:24.266Z,15.03
2023-07-18T05:36:21.584Z,15.15
2023-07-18T05:37:21.564Z,15.12
2023-07-18T05:38:22.260Z,15.09
2023-07-18T05:39:22.272Z,15.19
2023-07-18T05:40:22.709Z,15.19
2023-07-18T05:41:21.901Z,15.23
2023-07-18T05:42:21.512Z,15.27
2023-07-18T05:43:22.535Z,15.20
2023-07-18T05:44:21.773Z,15.33
2023-07-18T05:45:21.508Z,15.23
2023-07-18T05:46:21.479Z,15.25
2023-07-18T05:47:21.458Z,15.30
2023-07-18T05:48:21.457Z,15.37
2023-07-18T05:49:21.461Z,15.38
2023-07-18T05:50:22.258Z,15.38
2023-07-18T05:51:21.832Z,15.44
2023-07-18T05:52:21.388Z,15.41
2023-07-18T05:53:22.445Z,15.49
2023-07-18T05:54:21.366Z,15.53
2023-07-18T05:55:23.358Z,15.55
2023-07-18T05:56:21.349Z,15.52
2023-07-18T05:57:22.278Z,15.58
2023-07-18T05:58:21.362Z,15.51
2023-07-18T05:59:21.333Z,15.64
2023-07-18T06:00:22.267Z,15.53
2023-07-18T06:01:21.581Z,15.70
2023-07-18T06:02:22.259Z,15.64
2023-07-18T06:03:21.390Z,15.71
2023-07-18T06:04:21.376Z,15.76
2023-07-18T06:05:21.282Z,15.76
2023-07-18T06:06:22.285Z,15.78
2023-07-18T06:07:21.238Z,15.76
2023-07-18T06:08:21.227Z,15.86
2023-07-18T06:09:21.209Z,15.81
2023-07-18T06:10:21.201Z,15.93
2023-07-18T06:11:21.334Z,15.84
2023-07-18T06:12:21.170Z,15.93
2023-07-18T06:13:22.210Z,15.99
2023-07-18T06:14:21.173Z,16.07
2023-07-18T06:15:21.157Z,16.01
2023-07-18T06:16:21.171Z,15.99
2023-07-18T06:17:21.167Z,16.13
2023-07-18T06:18:21.981Z,16.07
2023-07-18T06:19:21.774Z,16.06
2023-07-18T06:20:21.779Z,16.14
2023-07-18T06:21:21.352Z,16.10
2023-07-18T06:22:21.056Z,16.07
2023-07-18T06:23:21.054Z,16.16
2023-07-18T06:24:21.049Z,16.25
2023-07-18T06:25:21.028Z,16.23
2023-07-18T06:26:21.032Z,16.17
2023-07-18T06:27:21.016Z,16.27
2023-07-18T06:28:20.987Z,16.22
2023-07-18T06:29:21.182Z,16.25
2023-07-18T06:30:20.984Z,16.36
2023-07-18T06:31:21.307Z,16.36
2023-07-18T06:32:20.946Z,16.36
2023-07-18T06:33:20.937Z,16.30
2023-07-18T06:34:21.962Z,16.40
2023-07-18T06:35:24.079Z,16.45
2023-07-18T06:36:20.977Z,16.42
2023-07-18T06:37:20.888Z,16.57
2023-07-18T06:38:20.875Z,16.50
2023-07-18T06:39:20.860Z,16.50
2023-07-18T06:40:20.897Z,16.54
2023-07-18T06:41:21.114Z,16.54
2023-07-18T06:42:20.840Z,16.59
2023-07-18T06:43:20.830Z,16.65
2023-07-18T06:44:20.814Z,16.65
2023-07-18T06:45:21.793Z,16.73
2023-07-18T06:46:20.869Z,16.70
2023-07-18T06:47:20.780Z,16.82
2023-07-18T06:48:20.770Z,16.81
2023-07-18T06:49:21.276Z,16.73
2023-07-18T06:50:20.762Z,16.91
2023-07-18T06:51:21.030Z,16.82
2023-07-18T06:52:20.798Z,16.88
2023-07-18T06:53:20.719Z,16.92
2023-07-18T06:54:20.718Z,16.92
2023-07-18T06:55:20.687Z,16.91
2023-07-18T06:56:20.684Z,17.03
2023-07-18T06:57:20.661Z,17.02
2023-07-18T06:58:20.796Z,17.00
2023-07-18T06:59:20.658Z,17.05
2023-07-18T07:00:21.653Z,17.12
2023-07-18T07:01:20.932Z,17.15
2023-07-18T07:02:20.753Z,17.18
2023-07-18T07:03:20.695Z,17.18
2023-07-18T07:04:20.684Z,17.14
2023-07-18T07:05:20.614Z,17.28
2023-07-18T07:06:20.564Z,17.32
2023-07-18T07:07:20.561Z,17.28
2023-07-18T07:08:20.795Z,17.36
2023-07-18T07:09:21.544Z,17.40
2023-07-18T07:10:20.553Z,17.33
2023-07-18T07:11:20.877Z,17.45
2023-07-18T07:12:34.569Z,17.40
2023-07-18T07:13:22.270Z,17.46
2023-07-18T07:14:21.518Z,17.28
2023-07-18T07:15:20.470Z,17.42
2023-07-18T07:16:20.486Z,17.38
2023-07-18T07:17:22.361Z,17.39
2023-07-18T07:18:20.423Z,17.49
2023-07-18T07:19:20.426Z,17.51
2023-07-18T07:20:20.417Z,17.53
2023-07-18T07:21:20.659Z,17.58
2023-07-18T07:22:20.383Z,17.63
2023-07-18T07:23:20.385Z,17.70
2023-07-18T07:24:21.319Z,17.63
2023-07-18T07:25:24.864Z,17.62
2023-07-18T07:26:20.340Z,17.70
2023-07-18T07:27:20.337Z,17.80
2023-07-18T07:28:20.362Z,17.79
2023-07-18T07:29:20.372Z,17.86
2023-07-18T07:30:20.331Z,17.89
2023-07-18T07:31:20.600Z,17.94
2023-07-18T07:32:21.325Z,17.95
2023-07-18T07:33:20.793Z,17.95
2023-07-18T07:34:26.771Z,18.04
2023-07-18T07:35:20.313Z,17.99
2023-07-18T07:36:20.793Z,17.99
2023-07-18T07:37:21.228Z,18.13
2023-07-18T07:38:20.221Z,18.17
2023-07-18T07:39:20.201Z,18.11
2023-07-18T07:40:20.298Z,18.16
2023-07-18T07:41:22.926Z,18.10
2023-07-18T07:42:24.781Z,18.10
2023-07-18T07:43:22.826Z,18.10
2023-07-18T07:44:20.138Z,18.25
2023-07-18T07:45:20.135Z,18.26
2023-07-18T07:46:20.268Z,18.29
2023-07-18T07:47:21.171Z,18.26
2023-07-18T07:48:20.771Z,18.26
2023-07-18T07:49:22.806Z,18.34
2023-07-18T07:50:20.815Z,18.36
2023-07-18T07:51:20.215Z,18.41
2023-07-18T07:52:20.297Z,18.41
2023-07-18T07:53:20.091Z,18.46
2023-07-18T07:54:20.039Z,18.41
2023-07-18T07:55:20.779Z,18.44
2023-07-18T07:56:20.770Z,18.49
2023-07-18T07:57:21.344Z,18.47
2023-07-18T07:58:20.771Z,18.51
2023-07-18T07:59:20.002Z,18.56
2023-07-18T08:00:20.158Z,18.54
2023-07-18T08:01:20.146Z,18.54
2023-07-18T08:02:22.997Z,18.54
2023-07-18T08:03:19.987Z,18.66
2023-07-18T08:04:20.784Z,18.68
2023-07-18T08:05:20.822Z,18.64
2023-07-18T08:06:22.785Z,18.68
2023-07-18T08:07:20.783Z,18.75
2023-07-18T08:08:19.888Z,18.79
2023-07-18T08:09:19.886Z,18.78
2023-07-18T08:10:22.809Z,18.87
2023-07-18T08:11:20.045Z,18.90
2023-07-18T08:12:20.798Z,18.90
2023-07-18T08:13:19.823Z,18.94
2023-07-18T08:14:19.803Z,18.96
2023-07-18T08:15:20.319Z,18.97
2023-07-18T08:16:19.892Z,19.02
2023-07-18T08:17:19.830Z,18.91
2023-07-18T08:18:19.791Z,19.06
2023-07-18T08:19:19.747Z,19.06
2023-07-18T08:20:22.338Z,19.10
2023-07-18T08:21:26.315Z,19.13
2023-07-18T08:22:19.801Z,19.10
2023-07-18T08:23:20.321Z,19.13
2023-07-18T08:24:19.695Z,19.17
2023-07-18T08:25:19.810Z,19.16
2023-07-18T08:26:20.683Z,19.17
2023-07-18T08:27:19.657Z,19.17
2023-07-18T08:28:19.987Z,19.23
2023-07-18T08:29:26.332Z,19.17
2023-07-18T08:30:22.321Z,19.17
2023-07-18T08:31:19.868Z,19.24
2023-07-18T08:32:43.336Z,19.31
2023-07-18T08:33:19.610Z,19.34
2023-07-18T08:34:21.656Z,19.42
2023-07-18T08:35:19.564Z,19.52
2023-07-18T08:36:19.680Z,19.60
2023-07-18T08:37:20.411Z,19.60
2023-07-18T08:38:23.325Z,19.62
2023-07-18T08:39:20.276Z,19.61
2023-07-18T08:40:19.529Z,19.64
2023-07-18T08:41:19.729Z,19.71
2023-07-18T08:42:19.518Z,19.79
2023-07-18T08:43:26.293Z,19.68
2023-07-18T08:44:19.503Z,19.71
2023-07-18T08:45:19.459Z,19.70
2023-07-18T08:46:20.582Z,19.65
2023-07-18T08:47:26.298Z,19.70
2023-07-18T08:48:19.567Z,19.76
2023-07-18T08:49:19.433Z,19.76
2023-07-18T08:50:19.458Z,19.83
2023-07-18T08:51:19.700Z,19.86
2023-07-18T08:52:22.355Z,19.86
2023-07-18T08:53:19.412Z,19.85
2023-07-18T08:54:19.391Z,19.82
2023-07-18T08:55:19.397Z,19.82
2023-07-18T08:56:19.373Z,19.78
2023-07-18T08:57:19.338Z,19.85
2023-07-18T08:58:19.367Z,19.83
2023-07-18T08:59:19.321Z,19.86
2023-07-18T09:00:19.327Z,19.89
2023-07-18T09:01:19.806Z,19.92
2023-07-18T09:02:19.290Z,19.95
2023-07-18T09:03:19.817Z,19.95
2023-07-18T09:04:19.324Z,19.97
2023-07-18T09:05:19.246Z,20.05
2023-07-18T09:06:19.315Z,20.05
2023-07-18T09:07:21.794Z,20.05
2023-07-18T09:08:19.226Z,19.97
2023-07-18T09:09:19.317Z,20.00
2023-07-18T09:10:19.829Z,19.89
2023-07-18T09:11:19.487Z,20.01
2023-07-18T09:12:19.195Z,20.05
2023-07-18T09:13:19.313Z,20.15
2023-07-18T09:14:19.159Z,20.17
2023-07-18T09:15:19.138Z,20.23
2023-07-18T09:16:19.133Z,20.25
2023-07-18T09:17:19.168Z,20.37
2023-07-18T09:18:19.106Z,20.40
2023-07-18T09:19:19.106Z,20.34
2023-07-18T09:20:19.101Z,20.37
2023-07-18T09:21:19.373Z,20.34
2023-07-18T09:22:19.082Z,20.31
2023-07-18T09:23:19.062Z,20.23
2023-07-18T09:24:19.324Z,20.27
2023-07-18T09:25:19.106Z,20.20
2023-07-18T09:26:19.029Z,20.27
2023-07-18T09:27:19.061Z,20.20
2023-07-18T09:28:21.815Z,20.27
2023-07-18T09:29:19.000Z,20.37
2023-07-18T09:30:19.827Z,20.40
2023-07-18T09:31:19.568Z,20.48
2023-07-18T09:32:19.019Z,20.56
2023-07-18T09:33:18.934Z,20.66
2023-07-18T09:34:18.944Z,20.71
2023-07-18T09:35:18.910Z,20.75
2023-07-18T09:36:18.897Z,20.81
2023-07-18T09:37:19.795Z,20.88
2023-07-18T09:38:18.871Z,20.90
2023-07-18T09:39:18.878Z,20.91
2023-07-18T09:40:19.006Z,21.05
2023-07-18T09:41:21.500Z,21.13
2023-07-18T09:43:18.845Z,21.08
2023-07-18T09:44:31.320Z,21.18
2023-07-18T09:45:19.816Z,21.13
2023-07-18T09:46:18.989Z,21.13
2023-07-18T09:47:19.293Z,21.27
2023-07-18T09:48:18.908Z,21.18
2023-07-18T09:49:18.764Z,21.22
2023-07-18T09:50:18.813Z,21.22
2023-07-18T09:51:33.303Z,21.38
2023-07-18T09:52:25.296Z,21.46
2023-07-18T09:53:18.753Z,21.61
2023-07-18T09:54:18.709Z,21.66
2023-07-18T09:55:18.702Z,21.71
2023-07-18T09:56:18.681Z,21.71
2023-07-18T09:57:18.688Z,21.89
2023-07-18T09:58:18.661Z,21.77
2023-07-18T09:59:18.671Z,21.89
2023-07-18T10:00:18.664Z,21.99
2023-07-18T10:01:19.005Z,21.90
2023-07-18T10:02:18.610Z,21.98
2023-07-18T10:03:18.657Z,22.11
2023-07-18T10:04:25.327Z,22.11
2023-07-18T10:05:18.587Z,22.17
2023-07-18T10:06:19.311Z,22.20
2023-07-18T10:07:18.586Z,22.20
2023-07-18T10:08:18.549Z,22.24
2023-07-18T10:09:25.304Z,22.27
2023-07-18T10:10:18.531Z,22.26
2023-07-18T10:11:18.990Z,22.15
2023-07-18T10:12:18.496Z,22.05
2023-07-18T10:13:19.029Z,21.86
2023-07-18T10:14:18.481Z,21.85
2023-07-18T10:15:19.300Z,21.89
2023-07-18T10:16:21.337Z,21.79
2023-07-18T10:17:19.334Z,21.74
2023-07-18T10:18:18.923Z,21.79
2023-07-18T10:19:18.447Z,21.73
2023-07-18T10:20:18.409Z,21.77
2023-07-18T10:21:18.874Z,21.73
2023-07-18T10:22:18.392Z,21.79
2023-07-18T10:23:18.502Z,21.83
2023-07-18T10:24:18.363Z,21.89
2023-07-18T10:25:18.379Z,21.82
2023-07-18T10:26:18.354Z,21.82
2023-07-18T10:27:18.339Z,21.83
2023-07-18T10:28:19.299Z,22.06
2023-07-18T10:29:18.470Z,22.14
2023-07-18T10:30:20.798Z,22.31
2023-07-18T10:31:18.565Z,22.54
2023-07-18T10:32:18.268Z,22.70
2023-07-18T10:33:18.269Z,22.72
2023-07-18T10:34:18.272Z,22.82
2023-07-18T10:35:18.339Z,22.94
2023-07-18T10:36:20.822Z,22.97
2023-07-18T10:37:18.290Z,23.09
2023-07-18T10:38:18.223Z,23.00
2023-07-18T10:39:18.803Z,22.91
2023-07-18T10:40:20.826Z,23.12
2023-07-18T10:41:18.506Z,23.16
2023-07-18T10:42:18.340Z,23.19
2023-07-18T10:43:18.810Z,23.41
2023-07-18T10:44:18.149Z,23.32
2023-07-18T10:45:18.155Z,23.39
2023-07-18T10:46:18.206Z,23.49
2023-07-18T10:47:18.216Z,23.52
2023-07-18T10:48:18.162Z,23.54
2023-07-18T10:49:18.099Z,23.60
2023-07-18T10:50:20.175Z,23.42
2023-07-18T10:51:18.357Z,23.35
2023-07-18T10:52:18.062Z,23.19
2023-07-18T10:53:18.061Z,23.09
2023-07-18T10:54:18.065Z,23.06
2023-07-18T10:55:18.026Z,22.66
2023-07-18T10:56:18.002Z,22.81
2023-07-18T10:57:18.014Z,22.67
2023-07-18T10:58:17.997Z,22.69
2023-07-18T10:59:17.983Z,22.69
2023-07-18T11:00:17.989Z,22.61
2023-07-18T11:01:24.945Z,22.81
2023-07-18T11:02:17.958Z,22.78
2023-07-18T11:03:17.936Z,22.86
2023-07-18T11:04:18.854Z,22.88
2023-07-18T11:05:17.938Z,22.94
2023-07-18T11:06:17.893Z,22.79
2023-07-18T11:07:17.890Z,22.69
2023-07-18T11:08:17.877Z,22.57
2023-07-18T11:09:19.654Z,22.49
2023-07-18T11:10:17.857Z,22.52
2023-07-18T11:11:18.185Z,22.54
2023-07-18T11:12:17.838Z,22.46
2023-07-18T11:13:17.839Z,22.45
2023-07-18T11:14:17.809Z,22.44
2023-07-18T11:15:17.795Z,22.39
2023-07-18T11:16:18.363Z,22.39
2023-07-18T11:17:17.812Z,22.29
2023-07-18T11:18:18.319Z,22.29
2023-07-18T11:19:17.858Z,22.27
2023-07-18T11:20:20.322Z,22.30
2023-07-18T11:21:20.808Z,22.56
2023-07-18T11:22:17.721Z,22.51
2023-07-18T11:23:17.846Z,22.51
2023-07-18T11:24:17.741Z,22.51
2023-07-18T11:25:18.323Z,22.54
2023-07-18T11:26:17.769Z,22.51
2023-07-18T11:27:17.687Z,22.56
2023-07-18T11:28:20.319Z,22.48
2023-07-18T11:29:17.665Z,22.49
2023-07-18T11:30:17.652Z,22.66
2023-07-18T11:31:23.587Z,22.86
2023-07-18T11:32:18.598Z,23.09
2023-07-18T11:33:17.695Z,23.12
2023-07-18T11:34:20.315Z,23.32
2023-07-18T11:35:17.600Z,23.60
2023-07-18T11:36:17.842Z,23.78
2023-07-18T11:37:18.321Z,23.97
2023-07-18T11:38:18.315Z,24.21
2023-07-18T11:39:20.009Z,24.37
2023-07-18T11:40:17.510Z,24.29
2023-07-18T11:41:17.881Z,24.33
2023-07-18T11:42:18.320Z,24.37
2023-07-18T11:43:18.338Z,24.51
2023-07-18T11:44:17.485Z,24.45
2023-07-18T11:45:19.933Z,24.37
2023-07-18T11:46:17.466Z,24.34
2023-07-18T11:47:20.334Z,24.41
2023-07-18T11:48:18.384Z,24.48
2023-07-18T11:49:17.437Z,24.36
2023-07-18T11:50:17.409Z,24.27
2023-07-18T11:51:18.161Z,24.41
2023-07-18T11:52:17.423Z,24.49
2023-07-18T11:53:17.381Z,24.44
2023-07-18T11:54:18.329Z,24.24
2023-07-18T11:55:18.349Z,24.26
2023-07-18T11:56:17.362Z,24.30
2023-07-18T11:57:17.342Z,24.41
2023-07-18T11:58:17.336Z,24.55
2023-07-18T11:59:17.314Z,24.66
2023-07-18T12:00:17.305Z,24.60
2023-07-18T12:01:17.809Z,24.44
2023-07-18T12:02:17.338Z,24.29
2023-07-18T12:03:23.997Z,24.11
2023-07-18T12:04:17.329Z,24.11
2023-07-18T12:05:17.564Z,24.24
2023-07-18T12:06:17.352Z,24.37
2023-07-18T12:07:17.219Z,24.44
2023-07-18T12:08:17.222Z,24.23
2023-07-18T12:09:17.195Z,23.84
2023-07-18T12:10:26.073Z,23.79
2023-07-18T12:11:17.189Z,23.64
2023-07-18T12:12:17.838Z,23.62
2023-07-18T12:13:19.844Z,23.50
2023-07-18T12:14:17.164Z,23.49
2023-07-18T12:15:17.151Z,23.68
2023-07-18T12:16:17.476Z,23.86
2023-07-18T12:17:17.121Z,24.15
2023-07-18T12:18:23.834Z,24.24
2023-07-18T12:19:17.837Z,24.30
2023-07-18T12:20:17.829Z,24.12
2023-07-18T12:21:23.857Z,23.99
2023-07-18T12:22:17.081Z,23.81
2023-07-18T12:23:17.074Z,23.68
2023-07-18T12:24:17.036Z,23.74
2023-07-18T12:25:17.839Z,23.86
2023-07-18T12:26:17.012Z,24.08
2023-07-18T12:27:17.364Z,24.24
2023-07-18T12:28:17.831Z,24.36
2023-07-18T12:29:17.055Z,24.46
2023-07-18T12:30:16.969Z,24.45
2023-07-18T12:31:17.312Z,24.53
2023-07-18T12:32:17.034Z,24.55
2023-07-18T12:33:17.887Z,24.67
2023-07-18T12:34:16.951Z,24.84
2023-07-18T12:35:16.910Z,24.71
2023-07-18T12:36:20.032Z,24.84
2023-07-18T12:37:18.934Z,24.89
2023-07-18T12:38:18.864Z,24.94
2023-07-18T12:39:16.884Z,25.05
2023-07-18T12:40:17.927Z,25.01
2023-07-18T12:41:16.898Z,25.17
2023-07-18T12:42:16.872Z,24.92
2023-07-18T12:43:16.829Z,24.51
2023-07-18T12:44:16.817Z,24.39
2023-07-18T12:45:17.338Z,24.61
2023-07-18T12:46:23.590Z,24.39
2023-07-18T12:47:16.787Z,24.70
2023-07-18T12:48:16.793Z,24.94
2023-07-18T12:49:56.397Z,25.05
2023-07-18T12:50:17.768Z,24.98
2023-07-18T12:51:16.747Z,24.66
2023-07-18T12:52:17.358Z,24.31
2023-07-18T12:53:19.363Z,24.23